sensor_id;sensor_type;location;lat;lon;timestamp;pressure;altitude;pressure_sealevel;temperature
69597;BMP180;70000;51.176;-115.568;2023-12-04T00:00:37;84972.40;;;-1.40
69597;BMP180;70000;51.176;-115.568;2023-12-04T00:03:06;84972.60;;;-1.44
69597;BMP180;70000;51.176;-115.568;2023-12-04T00:05:35;84968.20;;;-1.50
69597;BMP180;70000;51.176;-115.568;2023-12-04T00:08:04;84964.40;;;-1.50
69597;BMP180;70000;51.176;-115.568;2023-12-04T00:10:33;84970.00;;;-1.50
69597;BMP180;70000;51.176;-115.568;2023-12-04T00:13:02;84967.60;;;-1.50
69597;BMP180;70000;51.176;-115.568;2023-12-04T00:15:31;84959.80;;;-1.50
69597;BMP180;70000;51.176;-115.568;2023-12-04T00:18:01;84961.00;;;-1.50
69597;BMP180;70000;51.176;-115.568;2023-12-04T00:20:33;84939.00;;;-1.50
69597;BMP180;70000;51.176;-115.568;2023-12-04T00:23:02;84941.60;;;-1.50
69597;BMP180;70000;51.176;-115.568;2023-12-04T00:25:31;84944.20;;;-1.50
69597;BMP180;70000;51.176;-115.568;2023-12-04T00:28:00;84932.80;;;-1.40
69597;BMP180;70000;51.176;-115.568;2023-12-04T00:30:29;84926.20;;;-1.40
69597;BMP180;70000;51.176;-115.568;2023-12-04T00:32:58;84927.60;;;-1.32
69597;BMP180;70000;51.176;-115.568;2023-12-04T00:35:27;84925.40;;;-1.30
69597;BMP180;70000;51.176;-115.568;2023-12-04T00:37:56;84921.60;;;-1.30
69597;BMP180;70000;51.176;-115.568;2023-12-04T00:40:26;84931.20;;;-1.30
69597;BMP180;70000;51.176;-115.568;2023-12-04T00:42:58;84932.00;;;-1.30
69597;BMP180;70000;51.176;-115.568;2023-12-04T00:45:33;84935.80;;;-1.30
69597;BMP180;70000;51.176;-115.568;2023-12-04T00:48:03;84938.80;;;-1.26
69597;BMP180;70000;51.176;-115.568;2023-12-04T00:50:32;84939.40;;;-1.20
69597;BMP180;70000;51.176;-115.568;2023-12-04T00:53:01;84928.00;;;-1.30
69597;BMP180;70000;51.176;-115.568;2023-12-04T00:55:30;84924.60;;;-1.30
69597;BMP180;70000;51.176;-115.568;2023-12-04T00:57:59;84927.60;;;-1.30
69597;BMP180;70000;51.176;-115.568;2023-12-04T01:00:28;84912.20;;;-1.30
69597;BMP180;70000;51.176;-115.568;2023-12-04T01:02:57;84912.60;;;-1.30
69597;BMP180;70000;51.176;-115.568;2023-12-04T01:05:26;84916.80;;;-1.30
69597;BMP180;70000;51.176;-115.568;2023-12-04T01:08:04;84908.60;;;-1.30
69597;BMP180;70000;51.176;-115.568;2023-12-04T01:10:33;84913.20;;;-1.30
69597;BMP180;70000;51.176;-115.568;2023-12-04T01:13:02;84914.00;;;-1.30
69597;BMP180;70000;51.176;-115.568;2023-12-04T01:15:33;84922.60;;;-1.30
69597;BMP180;70000;51.176;-115.568;2023-12-04T01:18:03;84922.40;;;-1.30
69597;BMP180;70000;51.176;-115.568;2023-12-04T01:20:32;84912.40;;;-1.30
69597;BMP180;70000;51.176;-115.568;2023-12-04T01:23:01;84925.00;;;-1.30
69597;BMP180;70000;51.176;-115.568;2023-12-04T01:25:30;84925.20;;;-1.30
69597;BMP180;70000;51.176;-115.568;2023-12-04T01:28:09;84924.40;;;-1.30
69597;BMP180;70000;51.176;-115.568;2023-12-04T01:30:38;84930.20;;;-1.30
69597;BMP180;70000;51.176;-115.568;2023-12-04T01:33:13;84936.00;;;-1.32
69597;BMP180;70000;51.176;-115.568;2023-12-04T01:35:42;84939.40;;;-1.38
69597;BMP180;70000;51.176;-115.568;2023-12-04T01:38:11;84940.20;;;-1.40
69597;BMP180;70000;51.176;-115.568;2023-12-04T01:40:40;84952.40;;;-1.40
69597;BMP180;70000;51.176;-115.568;2023-12-04T01:43:09;84952.40;;;-1.44
69597;BMP180;70000;51.176;-115.568;2023-12-04T01:45:38;84946.80;;;-1.50
69597;BMP180;70000;51.176;-115.568;2023-12-04T01:48:08;84957.60;;;-1.48
69597;BMP180;70000;51.176;-115.568;2023-12-04T01:50:38;84954.40;;;-1.44
69597;BMP180;70000;51.176;-115.568;2023-12-04T01:53:08;84952.60;;;-1.40
69597;BMP180;70000;51.176;-115.568;2023-12-04T01:55:37;84953.40;;;-1.42
69597;BMP180;70000;51.176;-115.568;2023-12-04T01:58:07;84954.00;;;-1.40
69597;BMP180;70000;51.176;-115.568;2023-12-04T02:00:37;84949.00;;;-1.42
69597;BMP180;70000;51.176;-115.568;2023-12-04T02:03:08;84954.60;;;-1.40
69597;BMP180;70000;51.176;-115.568;2023-12-04T02:05:39;84941.00;;;-1.40
69597;BMP180;70000;51.176;-115.568;2023-12-04T02:08:08;84936.60;;;-1.40
69597;BMP180;70000;51.176;-115.568;2023-12-04T02:10:39;84950.00;;;-1.40
69597;BMP180;70000;51.176;-115.568;2023-12-04T02:16:25;84958.00;;;-1.30
69597;BMP180;70000;51.176;-115.568;2023-12-04T02:18:59;84965.80;;;-1.30
69597;BMP180;70000;51.176;-115.568;2023-12-04T02:21:31;84971.00;;;-1.30
69597;BMP180;70000;51.176;-115.568;2023-12-04T02:24:01;84972.80;;;-1.30
69597;BMP180;70000;51.176;-115.568;2023-12-04T02:26:41;84978.40;;;-1.28
69597;BMP180;70000;51.176;-115.568;2023-12-04T02:29:23;84985.60;;;-1.30
69597;BMP180;70000;51.176;-115.568;2023-12-04T02:31:58;84991.00;;;-1.26
69597;BMP180;70000;51.176;-115.568;2023-12-04T03:05:24;85043.00;;;-0.10
69597;BMP180;70000;51.176;-115.568;2023-12-04T03:08:09;85056.80;;;-0.10
69597;BMP180;70000;51.176;-115.568;2023-12-04T03:15:05;85090.20;;;-0.30
69597;BMP180;70000;51.176;-115.568;2023-12-04T03:18:10;85092.20;;;-0.40
69597;BMP180;70000;51.176;-115.568;2023-12-04T03:25:52;85126.60;;;-0.50
69597;BMP180;70000;51.176;-115.568;2023-12-04T03:28:23;85135.80;;;-0.50
69597;BMP180;70000;51.176;-115.568;2023-12-04T03:30:52;85136.40;;;-0.60
69597;BMP180;70000;51.176;-115.568;2023-12-04T03:33:21;85143.00;;;-0.60
69597;BMP180;70000;51.176;-115.568;2023-12-04T03:35:50;85161.20;;;-0.70
69597;BMP180;70000;51.176;-115.568;2023-12-04T03:38:19;85158.60;;;-0.70
69597;BMP180;70000;51.176;-115.568;2023-12-04T03:40:48;85166.60;;;-0.70
69597;BMP180;70000;51.176;-115.568;2023-12-04T03:43:17;85176.80;;;-0.70
69597;BMP180;70000;51.176;-115.568;2023-12-04T03:45:47;85184.40;;;-0.70
69597;BMP180;70000;51.176;-115.568;2023-12-04T03:48:16;85197.60;;;-0.80
69597;BMP180;70000;51.176;-115.568;2023-12-04T03:50:45;85193.20;;;-0.80
69597;BMP180;70000;51.176;-115.568;2023-12-04T03:53:14;85211.20;;;-0.80
69597;BMP180;70000;51.176;-115.568;2023-12-04T03:55:45;85213.40;;;-0.70
69597;BMP180;70000;51.176;-115.568;2023-12-04T03:58:14;85212.40;;;-0.70
69597;BMP180;70000;51.176;-115.568;2023-12-04T04:00:43;85227.00;;;-0.70
69597;BMP180;70000;51.176;-115.568;2023-12-04T04:03:15;85235.20;;;-0.70
69597;BMP180;70000;51.176;-115.568;2023-12-04T04:05:44;85240.40;;;-0.70
69597;BMP180;70000;51.176;-115.568;2023-12-04T04:08:14;85255.20;;;-0.70
69597;BMP180;70000;51.176;-115.568;2023-12-04T04:10:49;85259.20;;;-0.68
69597;BMP180;70000;51.176;-115.568;2023-12-04T04:13:22;85255.60;;;-0.64
69597;BMP180;70000;51.176;-115.568;2023-12-04T04:15:51;85249.80;;;-0.60
69597;BMP180;70000;51.176;-115.568;2023-12-04T04:18:20;85256.20;;;-0.60
69597;BMP180;70000;51.176;-115.568;2023-12-04T04:20:53;85256.60;;;-0.60
69597;BMP180;70000;51.176;-115.568;2023-12-04T04:23:23;85262.00;;;-0.60
69597;BMP180;70000;51.176;-115.568;2023-12-04T04:25:55;85277.80;;;-0.52
69597;BMP180;70000;51.176;-115.568;2023-12-04T04:28:24;85275.40;;;-0.50
69597;BMP180;70000;51.176;-115.568;2023-12-04T04:30:53;85276.40;;;-0.50
69597;BMP180;70000;51.176;-115.568;2023-12-04T04:33:22;85283.60;;;-0.50
69597;BMP180;70000;51.176;-115.568;2023-12-04T04:35:55;85292.80;;;-0.44
69597;BMP180;70000;51.176;-115.568;2023-12-04T04:38:24;85293.20;;;-0.42
69597;BMP180;70000;51.176;-115.568;2023-12-04T04:40:55;85299.40;;;-0.40
69597;BMP180;70000;51.176;-115.568;2023-12-04T04:43:24;85315.20;;;-0.40
69597;BMP180;70000;51.176;-115.568;2023-12-04T04:45:54;85313.00;;;-0.40
69597;BMP180;70000;51.176;-115.568;2023-12-04T04:48:23;85317.60;;;-0.40
69597;BMP180;70000;51.176;-115.568;2023-12-04T04:50:53;85325.60;;;-0.40
69597;BMP180;70000;51.176;-115.568;2023-12-04T04:53:22;85336.00;;;-0.34
69597;BMP180;70000;51.176;-115.568;2023-12-04T04:55:55;85334.20;;;-0.30
69597;BMP180;70000;51.176;-115.568;2023-12-04T04:58:25;85341.20;;;-0.30
69597;BMP180;70000;51.176;-115.568;2023-12-04T05:00:56;85341.80;;;-0.30
69597;BMP180;70000;51.176;-115.568;2023-12-04T05:03:37;85349.40;;;-0.30
69597;BMP180;70000;51.176;-115.568;2023-12-04T05:06:07;85351.00;;;-0.30
69597;BMP180;70000;51.176;-115.568;2023-12-04T05:08:49;85356.60;;;-0.30
69597;BMP180;70000;51.176;-115.568;2023-12-04T05:11:24;85358.00;;;-0.28
69597;BMP180;70000;51.176;-115.568;2023-12-04T05:13:53;85360.60;;;-0.30
69597;BMP180;70000;51.176;-115.568;2023-12-04T05:16:22;85374.80;;;-0.30
69597;BMP180;70000;51.176;-115.568;2023-12-04T05:22:03;85398.40;;;-0.30
69597;BMP180;70000;51.176;-115.568;2023-12-04T05:24:32;85402.60;;;-0.30
69597;BMP180;70000;51.176;-115.568;2023-12-04T05:27:10;85407.00;;;-0.30
69597;BMP180;70000;51.176;-115.568;2023-12-04T05:30:14;85402.80;;;-0.30
69597;BMP180;70000;51.176;-115.568;2023-12-04T05:32:46;85413.40;;;-0.32
69597;BMP180;70000;51.176;-115.568;2023-12-04T05:35:23;85416.40;;;-0.30
69597;BMP180;70000;51.176;-115.568;2023-12-04T05:38:01;85414.40;;;-0.30
69597;BMP180;70000;51.176;-115.568;2023-12-04T05:40:37;85422.80;;;-0.20
69597;BMP180;70000;51.176;-115.568;2023-12-04T05:43:06;85422.40;;;-0.20
69597;BMP180;70000;51.176;-115.568;2023-12-04T05:45:35;85427.80;;;-0.20
69597;BMP180;70000;51.176;-115.568;2023-12-04T05:48:07;85429.60;;;-0.20
69597;BMP180;70000;51.176;-115.568;2023-12-04T05:50:36;85438.80;;;-0.20
69597;BMP180;70000;51.176;-115.568;2023-12-04T05:53:11;85440.80;;;-0.20
69597;BMP180;70000;51.176;-115.568;2023-12-04T05:55:40;85441.60;;;-0.20
69597;BMP180;70000;51.176;-115.568;2023-12-04T05:58:11;85437.40;;;-0.20
69597;BMP180;70000;51.176;-115.568;2023-12-04T06:00:41;85440.60;;;-0.20
69597;BMP180;70000;51.176;-115.568;2023-12-04T06:03:10;85442.60;;;-0.20
69597;BMP180;70000;51.176;-115.568;2023-12-04T06:05:40;85447.40;;;-0.20
69597;BMP180;70000;51.176;-115.568;2023-12-04T06:08:09;85446.80;;;-0.30
69597;BMP180;70000;51.176;-115.568;2023-12-04T06:10:38;85461.40;;;-0.30
69597;BMP180;70000;51.176;-115.568;2023-12-04T06:13:11;85464.60;;;-0.30
69597;BMP180;70000;51.176;-115.568;2023-12-04T06:15:41;85477.60;;;-0.30
69597;BMP180;70000;51.176;-115.568;2023-12-04T06:18:10;85471.80;;;-0.40
69597;BMP180;70000;51.176;-115.568;2023-12-04T06:20:42;85484.00;;;-0.40
69597;BMP180;70000;51.176;-115.568;2023-12-04T06:23:12;85488.80;;;-0.40
69597;BMP180;70000;51.176;-115.568;2023-12-04T06:25:42;85494.40;;;-0.42
69597;BMP180;70000;51.176;-115.568;2023-12-04T06:28:12;85499.80;;;-0.40
69597;BMP180;70000;51.176;-115.568;2023-12-04T06:30:41;85513.60;;;-0.42
69597;BMP180;70000;51.176;-115.568;2023-12-04T06:33:11;85513.60;;;-0.42
69597;BMP180;70000;51.176;-115.568;2023-12-04T06:35:43;85516.00;;;-0.42
69597;BMP180;70000;51.176;-115.568;2023-12-04T06:38:18;85516.20;;;-0.42
69597;BMP180;70000;51.176;-115.568;2023-12-04T06:40:48;85519.60;;;-0.40
69597;BMP180;70000;51.176;-115.568;2023-12-04T06:43:19;85523.60;;;-0.40
69597;BMP180;70000;51.176;-115.568;2023-12-04T06:45:50;85529.80;;;-0.40
69597;BMP180;70000;51.176;-115.568;2023-12-04T06:48:20;85536.80;;;-0.40
69597;BMP180;70000;51.176;-115.568;2023-12-04T06:50:49;85544.40;;;-0.40
69597;BMP180;70000;51.176;-115.568;2023-12-04T06:53:20;85547.20;;;-0.40
69597;BMP180;70000;51.176;-115.568;2023-12-04T06:55:52;85553.80;;;-0.40
69597;BMP180;70000;51.176;-115.568;2023-12-04T06:58:23;85550.60;;;-0.40
69597;BMP180;70000;51.176;-115.568;2023-12-04T07:10:50;85575.00;;;-0.40
69597;BMP180;70000;51.176;-115.568;2023-12-04T07:13:19;85575.20;;;-0.40
69597;BMP180;70000;51.176;-115.568;2023-12-04T07:15:49;85586.60;;;-0.40
69597;BMP180;70000;51.176;-115.568;2023-12-04T07:18:17;85596.60;;;-0.40
69597;BMP180;70000;51.176;-115.568;2023-12-04T07:20:46;85598.80;;;-0.34
69597;BMP180;70000;51.176;-115.568;2023-12-04T07:23:14;85601.20;;;-0.32
69597;BMP180;70000;51.176;-115.568;2023-12-04T07:25:43;85609.20;;;-0.30
69597;BMP180;70000;51.176;-115.568;2023-12-04T07:28:12;85615.80;;;-0.30
69597;BMP180;70000;51.176;-115.568;2023-12-04T07:30:40;85626.20;;;-0.30
69597;BMP180;70000;51.176;-115.568;2023-12-04T07:33:11;85631.20;;;-0.32
69597;BMP180;70000;51.176;-115.568;2023-12-04T07:35:40;85631.20;;;-0.36
69597;BMP180;70000;51.176;-115.568;2023-12-04T07:38:10;85636.00;;;-0.36
69597;BMP180;70000;51.176;-115.568;2023-12-04T07:40:40;85650.60;;;-0.38
69597;BMP180;70000;51.176;-115.568;2023-12-04T07:43:09;85663.60;;;-0.38
69597;BMP180;70000;51.176;-115.568;2023-12-04T07:45:37;85663.20;;;-0.40
69597;BMP180;70000;51.176;-115.568;2023-12-04T07:57:00;85674.20;;;-0.30
69597;BMP180;70000;51.176;-115.568;2023-12-04T07:59:32;85683.20;;;-0.30
69597;BMP180;70000;51.176;-115.568;2023-12-04T08:02:00;85691.00;;;-0.30
69597;BMP180;70000;51.176;-115.568;2023-12-04T08:04:31;85690.20;;;-0.30
69597;BMP180;70000;51.176;-115.568;2023-12-04T08:07:00;85698.00;;;-0.30
69597;BMP180;70000;51.176;-115.568;2023-12-04T08:09:28;85701.40;;;-0.30
69597;BMP180;70000;51.176;-115.568;2023-12-04T08:12:18;85710.60;;;-0.30
69597;BMP180;70000;51.176;-115.568;2023-12-04T08:14:48;85718.40;;;-0.30
69597;BMP180;70000;51.176;-115.568;2023-12-04T08:21:48;85725.20;;;-0.40
69597;BMP180;70000;51.176;-115.568;2023-12-04T08:24:17;85731.80;;;-0.40
69597;BMP180;70000;51.176;-115.568;2023-12-04T08:26:50;85725.80;;;-0.40
69597;BMP180;70000;51.176;-115.568;2023-12-04T08:29:19;85733.00;;;-0.40
69597;BMP180;70000;51.176;-115.568;2023-12-04T08:31:50;85743.00;;;-0.40
69597;BMP180;70000;51.176;-115.568;2023-12-04T08:34:26;85750.00;;;-0.40
69597;BMP180;70000;51.176;-115.568;2023-12-04T08:36:59;85746.40;;;-0.40
69597;BMP180;70000;51.176;-115.568;2023-12-04T08:39:31;85751.60;;;-0.48
69597;BMP180;70000;51.176;-115.568;2023-12-04T08:42:02;85745.20;;;-0.50
69597;BMP180;70000;51.176;-115.568;2023-12-04T08:44:51;85746.20;;;-0.50
69597;BMP180;70000;51.176;-115.568;2023-12-04T08:47:26;85750.60;;;-0.50
69597;BMP180;70000;51.176;-115.568;2023-12-04T08:49:56;85746.00;;;-0.54
69597;BMP180;70000;51.176;-115.568;2023-12-04T08:53:12;85750.60;;;-0.52
69597;BMP180;70000;51.176;-115.568;2023-12-04T08:55:44;85739.80;;;-0.60
69597;BMP180;70000;51.176;-115.568;2023-12-04T08:58:13;85746.20;;;-0.60
69597;BMP180;70000;51.176;-115.568;2023-12-04T09:00:43;85745.40;;;-0.60
69597;BMP180;70000;51.176;-115.568;2023-12-04T09:03:12;85749.60;;;-0.60
69597;BMP180;70000;51.176;-115.568;2023-12-04T09:05:53;85749.20;;;-0.60
69597;BMP180;70000;51.176;-115.568;2023-12-04T09:08:24;85753.80;;;-0.60
69597;BMP180;70000;51.176;-115.568;2023-12-04T09:11:06;85751.40;;;-0.52
69597;BMP180;70000;51.176;-115.568;2023-12-04T09:13:50;85758.80;;;-0.50
69597;BMP180;70000;51.176;-115.568;2023-12-04T09:16:19;85767.60;;;-0.50
69597;BMP180;70000;51.176;-115.568;2023-12-04T09:18:48;85766.00;;;-0.50
69597;BMP180;70000;51.176;-115.568;2023-12-04T09:21:17;85762.60;;;-0.50
69597;BMP180;70000;51.176;-115.568;2023-12-04T09:23:46;85775.20;;;-0.50
69597;BMP180;70000;51.176;-115.568;2023-12-04T09:26:18;85768.40;;;-0.50
69597;BMP180;70000;51.176;-115.568;2023-12-04T09:28:47;85776.00;;;-0.50
69597;BMP180;70000;51.176;-115.568;2023-12-04T09:31:17;85774.20;;;-0.50
69597;BMP180;70000;51.176;-115.568;2023-12-04T09:33:46;85784.20;;;-0.50
69597;BMP180;70000;51.176;-115.568;2023-12-04T09:36:16;85778.60;;;-0.50
69597;BMP180;70000;51.176;-115.568;2023-12-04T09:38:45;85787.00;;;-0.50
69597;BMP180;70000;51.176;-115.568;2023-12-04T09:41:16;85787.60;;;-0.50
69597;BMP180;70000;51.176;-115.568;2023-12-04T09:43:47;85788.00;;;-0.50
69597;BMP180;70000;51.176;-115.568;2023-12-04T09:46:18;85789.60;;;-0.50
69597;BMP180;70000;51.176;-115.568;2023-12-04T09:48:55;85795.60;;;-0.50
69597;BMP180;70000;51.176;-115.568;2023-12-04T09:51:28;85802.00;;;-0.50
69597;BMP180;70000;51.176;-115.568;2023-12-04T09:54:03;85791.00;;;-0.60
69597;BMP180;70000;51.176;-115.568;2023-12-04T09:56:36;85798.80;;;-0.60
69597;BMP180;70000;51.176;-115.568;2023-12-04T09:59:07;85799.00;;;-0.60
69597;BMP180;70000;51.176;-115.568;2023-12-04T10:01:38;85805.20;;;-0.60
69597;BMP180;70000;51.176;-115.568;2023-12-04T10:04:10;85805.20;;;-0.60
69597;BMP180;70000;51.176;-115.568;2023-12-04T10:06:39;85803.60;;;-0.60
69597;BMP180;70000;51.176;-115.568;2023-12-04T10:09:09;85810.00;;;-0.60
69597;BMP180;70000;51.176;-115.568;2023-12-04T10:11:41;85811.20;;;-0.60
69597;BMP180;70000;51.176;-115.568;2023-12-04T10:14:21;85820.00;;;-0.62
69597;BMP180;70000;51.176;-115.568;2023-12-04T10:16:50;85817.60;;;-0.66
69597;BMP180;70000;51.176;-115.568;2023-12-04T10:19:27;85826.40;;;-0.62
69597;BMP180;70000;51.176;-115.568;2023-12-04T10:22:01;85823.60;;;-0.60
69597;BMP180;70000;51.176;-115.568;2023-12-04T10:24:37;85830.20;;;-0.70
69597;BMP180;70000;51.176;-115.568;2023-12-04T10:27:11;85835.20;;;-0.70
69597;BMP180;70000;51.176;-115.568;2023-12-04T10:29:47;85840.00;;;-0.70
69597;BMP180;70000;51.176;-115.568;2023-12-04T10:32:20;85831.40;;;-0.60
69597;BMP180;70000;51.176;-115.568;2023-12-04T10:34:50;85833.00;;;-0.68
69597;BMP180;70000;51.176;-115.568;2023-12-04T10:37:20;85848.00;;;-0.70
69597;BMP180;70000;51.176;-115.568;2023-12-04T10:39:51;85858.20;;;-0.70
69597;BMP180;70000;51.176;-115.568;2023-12-04T10:42:30;85862.00;;;-0.70
69597;BMP180;70000;51.176;-115.568;2023-12-04T10:44:59;85864.40;;;-0.70
69597;BMP180;70000;51.176;-115.568;2023-12-04T10:47:30;85871.20;;;-0.70
69597;BMP180;70000;51.176;-115.568;2023-12-04T10:50:00;85870.80;;;-0.70
69597;BMP180;70000;51.176;-115.568;2023-12-04T10:52:32;85871.80;;;-0.70
69597;BMP180;70000;51.176;-115.568;2023-12-04T10:55:02;85878.00;;;-0.70
69597;BMP180;70000;51.176;-115.568;2023-12-04T10:57:39;85885.80;;;-0.70
69597;BMP180;70000;51.176;-115.568;2023-12-04T11:00:13;85885.80;;;-0.70
69597;BMP180;70000;51.176;-115.568;2023-12-04T11:02:47;85889.20;;;-0.70
69597;BMP180;70000;51.176;-115.568;2023-12-04T11:05:20;85891.00;;;-0.70
69597;BMP180;70000;51.176;-115.568;2023-12-04T11:07:57;85902.60;;;-0.70
69597;BMP180;70000;51.176;-115.568;2023-12-04T11:11:08;85900.60;;;-0.70
69597;BMP180;70000;51.176;-115.568;2023-12-04T11:13:42;85896.80;;;-0.70
69597;BMP180;70000;51.176;-115.568;2023-12-04T11:19:38;85920.00;;;-0.70
69597;BMP180;70000;51.176;-115.568;2023-12-04T11:22:10;85923.20;;;-0.66
69597;BMP180;70000;51.176;-115.568;2023-12-04T11:24:41;85927.80;;;-0.60
69597;BMP180;70000;51.176;-115.568;2023-12-04T11:27:10;85936.80;;;-0.60
69597;BMP180;70000;51.176;-115.568;2023-12-04T11:29:41;85936.20;;;-0.60
69597;BMP180;70000;51.176;-115.568;2023-12-04T11:32:15;85942.80;;;-0.60
69597;BMP180;70000;51.176;-115.568;2023-12-04T11:34:51;85945.20;;;-0.60
69597;BMP180;70000;51.176;-115.568;2023-12-04T11:37:25;85951.80;;;-0.60
69597;BMP180;70000;51.176;-115.568;2023-12-04T11:39:54;85958.60;;;-0.60
69597;BMP180;70000;51.176;-115.568;2023-12-04T11:42:25;85964.20;;;-0.60
69597;BMP180;70000;51.176;-115.568;2023-12-04T11:44:58;85962.20;;;-0.66
69597;BMP180;70000;51.176;-115.568;2023-12-04T11:47:30;85973.20;;;-0.70
69597;BMP180;70000;51.176;-115.568;2023-12-04T11:50:04;85979.40;;;-0.70
69597;BMP180;70000;51.176;-115.568;2023-12-04T11:52:34;85981.00;;;-0.70
69597;BMP180;70000;51.176;-115.568;2023-12-04T11:55:06;85993.20;;;-0.66
69597;BMP180;70000;51.176;-115.568;2023-12-04T11:57:38;85993.60;;;-0.60
69597;BMP180;70000;51.176;-115.568;2023-12-04T12:05:42;85997.60;;;-0.60
69597;BMP180;70000;51.176;-115.568;2023-12-04T12:08:12;86001.80;;;-0.60
69597;BMP180;70000;51.176;-115.568;2023-12-04T12:10:41;86001.20;;;-0.60
69597;BMP180;70000;51.176;-115.568;2023-12-04T12:13:11;86008.40;;;-0.60
69597;BMP180;70000;51.176;-115.568;2023-12-04T12:15:41;86015.60;;;-0.58
69597;BMP180;70000;51.176;-115.568;2023-12-04T12:18:10;86025.40;;;-0.50
69597;BMP180;70000;51.176;-115.568;2023-12-04T12:20:39;86028.60;;;-0.50
69597;BMP180;70000;51.176;-115.568;2023-12-04T12:23:08;86025.00;;;-0.50
69597;BMP180;70000;51.176;-115.568;2023-12-04T12:25:39;86028.00;;;-0.40
69597;BMP180;70000;51.176;-115.568;2023-12-04T12:28:08;86041.60;;;-0.40
69597;BMP180;70000;51.176;-115.568;2023-12-04T12:30:38;86043.60;;;-0.32
69597;BMP180;70000;51.176;-115.568;2023-12-04T12:33:08;86044.40;;;-0.30
69597;BMP180;70000;51.176;-115.568;2023-12-04T12:35:37;86047.00;;;-0.30
69597;BMP180;70000;51.176;-115.568;2023-12-04T12:38:10;86052.40;;;-0.30
69597;BMP180;70000;51.176;-115.568;2023-12-04T12:40:40;86068.00;;;-0.30
69597;BMP180;70000;51.176;-115.568;2023-12-04T12:43:09;86070.60;;;-0.20
69597;BMP180;70000;51.176;-115.568;2023-12-04T12:45:44;86072.20;;;-0.20
69597;BMP180;70000;51.176;-115.568;2023-12-04T12:48:17;86072.20;;;-0.20
69597;BMP180;70000;51.176;-115.568;2023-12-04T12:50:47;86073.60;;;-0.20
69597;BMP180;70000;51.176;-115.568;2023-12-04T12:53:19;86074.20;;;-0.20
69597;BMP180;70000;51.176;-115.568;2023-12-04T12:55:48;86078.20;;;-0.20
69597;BMP180;70000;51.176;-115.568;2023-12-04T12:58:19;86078.00;;;-0.20
69597;BMP180;70000;51.176;-115.568;2023-12-04T13:00:50;86079.20;;;-0.20
69597;BMP180;70000;51.176;-115.568;2023-12-04T13:03:20;86085.60;;;-0.20
69597;BMP180;70000;51.176;-115.568;2023-12-04T13:05:50;86082.40;;;-0.20
69597;BMP180;70000;51.176;-115.568;2023-12-04T13:08:20;86084.60;;;-0.20
69597;BMP180;70000;51.176;-115.568;2023-12-04T13:10:49;86085.00;;;-0.20
69597;BMP180;70000;51.176;-115.568;2023-12-04T13:13:18;86093.00;;;-0.20
69597;BMP180;70000;51.176;-115.568;2023-12-04T13:15:47;86092.40;;;-0.22
69597;BMP180;70000;51.176;-115.568;2023-12-04T13:18:17;86101.00;;;-0.26
69597;BMP180;70000;51.176;-115.568;2023-12-04T13:34:14;86113.60;;;-0.20
69597;BMP180;70000;51.176;-115.568;2023-12-04T13:36:44;86108.60;;;-0.20
69597;BMP180;70000;51.176;-115.568;2023-12-04T13:39:13;86122.40;;;-0.20
69597;BMP180;70000;51.176;-115.568;2023-12-04T13:41:46;86123.00;;;-0.20
69597;BMP180;70000;51.176;-115.568;2023-12-04T13:44:34;86118.80;;;-0.20
69597;BMP180;70000;51.176;-115.568;2023-12-04T13:47:03;86117.40;;;-0.20
69597;BMP180;70000;51.176;-115.568;2023-12-04T13:49:35;86114.40;;;-0.20
69597;BMP180;70000;51.176;-115.568;2023-12-04T13:52:04;86119.40;;;-0.20
69597;BMP180;70000;51.176;-115.568;2023-12-04T13:54:38;86117.40;;;-0.20
69597;BMP180;70000;51.176;-115.568;2023-12-04T13:57:16;86115.40;;;-0.20
69597;BMP180;70000;51.176;-115.568;2023-12-04T13:59:57;86121.40;;;-0.14
69597;BMP180;70000;51.176;-115.568;2023-12-04T14:02:27;86124.00;;;-0.10
69597;BMP180;70000;51.176;-115.568;2023-12-04T14:04:57;86133.20;;;-0.10
69597;BMP180;70000;51.176;-115.568;2023-12-04T14:07:26;86136.40;;;-0.10
69597;BMP180;70000;51.176;-115.568;2023-12-04T14:09:56;86140.20;;;-0.10
69597;BMP180;70000;51.176;-115.568;2023-12-04T14:12:25;86141.20;;;-0.10
69597;BMP180;70000;51.176;-115.568;2023-12-04T14:14:55;86148.80;;;-0.10
69597;BMP180;70000;51.176;-115.568;2023-12-04T14:17:27;86143.40;;;-0.10
69597;BMP180;70000;51.176;-115.568;2023-12-04T14:19:57;86140.20;;;-0.10
69597;BMP180;70000;51.176;-115.568;2023-12-04T14:22:26;86145.80;;;-0.10
69597;BMP180;70000;51.176;-115.568;2023-12-04T14:24:55;86145.20;;;-0.10
69597;BMP180;70000;51.176;-115.568;2023-12-04T14:27:25;86141.80;;;-0.10
69597;BMP180;70000;51.176;-115.568;2023-12-04T14:29:54;86148.60;;;-0.16
69597;BMP180;70000;51.176;-115.568;2023-12-04T14:32:27;86141.80;;;-0.20
69597;BMP180;70000;51.176;-115.568;2023-12-04T14:35:10;86149.00;;;-0.20
69597;BMP180;70000;51.176;-115.568;2023-12-04T14:37:39;86155.20;;;-0.20
69597;BMP180;70000;51.176;-115.568;2023-12-04T14:40:13;86160.40;;;-0.20
69597;BMP180;70000;51.176;-115.568;2023-12-04T14:42:44;86164.00;;;-0.20
69597;BMP180;70000;51.176;-115.568;2023-12-04T14:45:15;86165.20;;;-0.20
69597;BMP180;70000;51.176;-115.568;2023-12-04T14:47:45;86163.20;;;-0.20
69597;BMP180;70000;51.176;-115.568;2023-12-04T14:50:17;86166.60;;;-0.22
69597;BMP180;70000;51.176;-115.568;2023-12-04T14:52:45;86167.00;;;-0.24
69597;BMP180;70000;51.176;-115.568;2023-12-04T14:55:19;86167.80;;;-0.22
69597;BMP180;70000;51.176;-115.568;2023-12-04T14:57:52;86173.00;;;-0.20
69597;BMP180;70000;51.176;-115.568;2023-12-04T15:00:30;86167.00;;;-0.20
69597;BMP180;70000;51.176;-115.568;2023-12-04T15:03:14;86165.60;;;-0.20
69597;BMP180;70000;51.176;-115.568;2023-12-04T15:05:43;86164.80;;;-0.20
69597;BMP180;70000;51.176;-115.568;2023-12-04T15:08:31;86168.40;;;-0.20
69597;BMP180;70000;51.176;-115.568;2023-12-04T15:11:35;86180.40;;;-0.20
69597;BMP180;70000;51.176;-115.568;2023-12-04T15:14:04;86182.60;;;-0.20
69597;BMP180;70000;51.176;-115.568;2023-12-04T15:16:49;86183.20;;;-0.20
69597;BMP180;70000;51.176;-115.568;2023-12-04T15:19:25;86190.00;;;-0.20
69597;BMP180;70000;51.176;-115.568;2023-12-04T15:22:04;86191.20;;;-0.20
69597;BMP180;70000;51.176;-115.568;2023-12-04T15:24:35;86196.80;;;-0.20
69597;BMP180;70000;51.176;-115.568;2023-12-04T15:27:08;86193.60;;;-0.18
69597;BMP180;70000;51.176;-115.568;2023-12-04T15:29:37;86193.20;;;-0.16